Pagrindinis puslapis
METAR-TAF:

METAR-TAF

Oro uostai :

Cape Lisburne, Aliaska, Jungtinės Amerikos Valstijos

platuma: 68-53N, ilguma: 166-06W, Aukštis: 4 m

Dabartinis oras

Ataskaita buvo paskelbta 27 minutes, ne 21:55 UTC
Vėjas 1 kt iš Pietų/Pietryčių
Temperatūra 2°C
Drėgmė 100%
Slėgis 1013 hPa
Matomumas: 16.1 km
Apsiniaukę ne aukštis 300 ft

METAR: PALU 302155Z AUTO 16001KT 10SM OVC003 02/02 A2991 RMK AO2 SLP127 T00180015

Laikas: 14:22 (22:22 UTC)


TAF: trūkstamas

Orai ataskaitas ir orų prognozės (METAR, TAF).

turimą stotys yra geltonos ir raudonos taškus žemėlapyje.

Perkelti pele per norėdami pamatyti stoties vardą.

Tada spustelėkite, norėdami matyti oro stebėjimo ir prognozės.

Norėdami pakeisti žemėlapį: spustelėkite ant žalios mygtukų su juodo kryžiaus žemyn,; žalią mygtuką su brūkšneliu, jei norite nutolinti; arba žalių rodyklių gretimoms žemėlapius.


METAR-TAF: